createdAt,value
2018-10-17T00:03:38.438Z,95925.00
2018-10-17T00:09:09.827Z,95920.00
2018-10-17T00:14:39.204Z,95916.00
2018-10-17T00:20:09.808Z,95918.00
2018-10-17T00:25:39.030Z,95914.00
2018-10-17T00:31:08.409Z,95905.00
2018-10-17T00:36:37.544Z,95916.00
2018-10-17T00:42:06.849Z,95908.00
2018-10-17T00:47:36.140Z,95909.00
2018-10-17T00:53:05.487Z,95910.00
2018-10-17T00:58:34.649Z,95905.00
2018-10-17T01:04:04.086Z,95901.00
2018-10-17T01:09:33.494Z,95893.00
2018-10-17T01:15:02.808Z,95897.00
2018-10-17T01:20:32.820Z,95892.00
2018-10-17T01:26:02.157Z,95894.00
2018-10-17T01:31:31.384Z,95884.00
2018-10-17T01:37:00.807Z,95889.00
2018-10-17T01:42:30.184Z,95884.00
2018-10-17T01:47:59.424Z,95884.00
2018-10-17T01:53:28.968Z,95888.00
2018-10-17T01:58:58.249Z,95880.00
2018-10-17T02:04:27.506Z,95872.00
2018-10-17T02:09:56.759Z,95878.00
2018-10-17T02:15:26.024Z,95875.00
2018-10-17T02:20:55.288Z,95876.00
2018-10-17T02:26:24.577Z,95864.00
2018-10-17T02:31:53.811Z,95868.00
2018-10-17T02:37:23.844Z,95866.00
2018-10-17T02:42:53.183Z,95872.00
2018-10-17T02:48:22.401Z,95871.00
2018-10-17T02:53:51.668Z,95866.00
2018-10-17T02:59:20.888Z,95867.00
2018-10-17T03:04:50.252Z,95871.00
2018-10-17T03:10:19.523Z,95873.00
2018-10-17T03:15:48.946Z,95874.00
2018-10-17T03:21:18.170Z,95875.00
2018-10-17T03:26:47.398Z,95876.00
2018-10-17T03:32:18.205Z,95863.00
2018-10-17T03:37:47.434Z,95871.00
2018-10-17T03:43:16.783Z,95876.00
2018-10-17T03:48:45.945Z,95885.00
2018-10-17T03:54:15.229Z,95885.00
2018-10-17T03:59:44.499Z,95881.00
2018-10-17T04:05:13.888Z,95888.00
2018-10-17T04:10:43.058Z,95880.00
2018-10-17T04:16:12.489Z,95876.00
2018-10-17T04:21:42.727Z,95878.00
2018-10-17T04:27:12.115Z,95876.00
2018-10-17T04:32:42.570Z,95878.00
2018-10-17T04:38:11.861Z,95883.00
2018-10-17T04:43:41.205Z,95876.00
2018-10-17T04:49:11.068Z,95876.00
2018-10-17T04:54:40.283Z,95880.00
2018-10-17T05:00:14.738Z,95877.00
2018-10-17T05:05:44.037Z,95875.00
2018-10-17T05:11:13.368Z,95875.00
2018-10-17T05:16:42.577Z,95883.00
2018-10-17T05:22:11.900Z,95893.00
2018-10-17T05:27:41.155Z,95896.00
2018-10-17T05:33:10.406Z,95888.00
2018-10-17T05:38:39.633Z,95899.00
2018-10-17T05:44:08.892Z,95903.00
2018-10-17T05:49:38.106Z,95904.00
2018-10-17T05:55:07.602Z,95908.00
2018-10-17T06:00:36.794Z,95901.00
2018-10-17T06:06:06.254Z,95908.00
2018-10-17T06:11:35.499Z,95918.00
2018-10-17T06:17:05.032Z,95928.00
2018-10-17T06:22:34.275Z,95931.00
2018-10-17T06:28:03.573Z,95927.00
2018-10-17T06:33:32.808Z,95925.00
2018-10-17T06:39:02.075Z,95931.00
2018-10-17T06:44:31.346Z,95935.00
2018-10-17T06:50:00.600Z,95944.00
2018-10-17T06:55:29.924Z,95947.00
2018-10-17T07:00:59.208Z,95939.00
2018-10-17T07:06:28.453Z,95940.00
2018-10-17T07:11:57.821Z,95944.00
2018-10-17T07:17:27.104Z,95944.00
2018-10-17T07:22:56.489Z,95945.00
2018-10-17T07:28:25.710Z,95939.00
2018-10-17T07:33:54.992Z,95946.00
2018-10-17T07:39:24.200Z,95941.00
2018-10-17T07:44:53.485Z,95943.00
2018-10-17T07:50:22.868Z,95946.00
2018-10-17T07:55:52.181Z,95951.00
2018-10-17T08:01:21.448Z,95951.00
2018-10-17T08:06:50.704Z,95953.00
2018-10-17T08:12:20.165Z,95955.00
2018-10-17T08:17:49.356Z,95951.00
2018-10-17T08:23:18.584Z,95948.00
2018-10-17T08:28:47.887Z,95949.00
2018-10-17T08:34:17.158Z,95951.00
2018-10-17T08:39:46.434Z,95950.00
2018-10-17T08:45:15.752Z,95952.00
2018-10-17T08:50:45.152Z,95947.00
2018-10-17T08:56:14.573Z,95951.00
2018-10-17T09:01:44.277Z,95944.00
2018-10-17T09:07:13.635Z,95948.00
2018-10-17T09:12:42.853Z,95936.00
2018-10-17T09:18:12.180Z,95937.00
2018-10-17T09:23:41.516Z,95936.00
2018-10-17T09:29:10.709Z,95935.00
2018-10-17T09:34:40.011Z,95940.00
2018-10-17T09:40:10.594Z,95936.00
2018-10-17T09:45:39.766Z,95929.00
2018-10-17T09:51:09.076Z,95931.00
2018-10-17T09:56:38.397Z,95925.00
2018-10-17T10:02:07.868Z,95919.00
2018-10-17T10:07:37.100Z,95911.00
2018-10-17T10:13:06.564Z,95916.00
2018-10-17T10:18:35.834Z,95908.00
2018-10-17T10:24:05.254Z,95913.00
2018-10-17T10:29:34.486Z,95902.00
2018-10-17T10:35:03.728Z,95898.00
2018-10-17T10:40:33.163Z,95895.00
2018-10-17T10:46:02.501Z,95896.00
2018-10-17T10:51:31.869Z,95885.00
2018-10-17T10:57:01.107Z,95879.00
2018-10-17T11:02:30.432Z,95873.00
2018-10-17T11:07:59.735Z,95867.00
2018-10-17T11:13:29.004Z,95868.00
2018-10-17T11:18:58.323Z,95860.00
2018-10-17T11:24:27.560Z,95863.00
2018-10-17T11:29:57.286Z,95858.00
2018-10-17T11:35:26.627Z,95855.00
2018-10-17T11:40:55.964Z,95841.00
2018-10-17T11:46:25.230Z,95839.00
2018-10-17T11:51:54.541Z,95838.00
2018-10-17T11:57:23.808Z,95833.00
2018-10-17T12:02:53.268Z,95829.00
2018-10-17T12:08:22.480Z,95828.00
2018-10-17T12:13:51.798Z,95832.00
2018-10-17T12:19:21.124Z,95831.00
2018-10-17T12:24:50.486Z,95827.00
2018-10-17T12:30:19.779Z,95825.00
2018-10-17T12:35:49.124Z,95823.00
2018-10-17T12:41:18.593Z,95821.00
2018-10-17T12:46:47.812Z,95817.00
2018-10-17T12:52:17.273Z,95811.00
2018-10-17T12:57:46.516Z,95807.00
2018-10-17T13:03:15.771Z,95803.00
2018-10-17T13:08:45.154Z,95806.00
2018-10-17T13:14:14.441Z,95808.00
2018-10-17T13:19:44.715Z,95800.00
2018-10-17T13:25:13.991Z,95797.00
2018-10-17T13:30:43.224Z,95795.00
2018-10-17T13:36:12.495Z,95794.00
2018-10-17T13:41:41.765Z,95786.00
2018-10-17T13:47:12.367Z,95787.00
2018-10-17T13:52:41.641Z,95787.00
2018-10-17T13:58:10.955Z,95787.00
2018-10-17T14:03:40.716Z,95779.00
2018-10-17T14:09:11.010Z,95740.00
2018-10-17T14:14:40.253Z,95738.00
2018-10-17T14:20:10.074Z,95764.00
2018-10-17T14:25:39.537Z,95774.00
2018-10-17T14:31:09.017Z,95782.00
2018-10-17T14:36:38.269Z,95777.00
2018-10-17T14:42:07.613Z,95782.00
2018-10-17T14:47:36.793Z,95766.00
2018-10-17T14:53:12.295Z,95755.00
2018-10-17T14:58:41.636Z,95784.00
2018-10-17T15:04:11.165Z,95761.00
2018-10-17T15:09:40.841Z,95763.00
2018-10-17T15:15:11.739Z,95780.00
2018-10-17T15:20:41.085Z,95789.00
2018-10-17T15:26:10.534Z,95782.00
2018-10-17T15:31:40.113Z,95781.00
2018-10-17T15:37:09.504Z,95779.00
2018-10-17T15:42:38.864Z,95780.00
2018-10-17T15:48:09.302Z,95790.00
2018-10-17T15:53:38.685Z,95786.00
2018-10-17T15:59:07.944Z,95779.00
2018-10-17T16:04:37.377Z,95783.00
2018-10-17T16:10:09.774Z,95790.00
2018-10-17T16:15:42.370Z,95787.00
2018-10-17T16:21:12.742Z,95791.00
2018-10-17T16:26:44.080Z,95797.00
2018-10-17T16:32:13.593Z,95803.00
2018-10-17T16:37:44.090Z,95804.00
2018-10-17T16:43:14.598Z,95807.00
2018-10-17T16:48:44.065Z,95808.00
2018-10-17T16:54:15.512Z,95815.00
2018-10-17T16:59:48.479Z,95808.00
2018-10-17T17:05:17.960Z,95806.00
2018-10-17T17:17:03.187Z,95810.00
2018-10-17T17:22:33.931Z,95815.00
2018-10-17T17:28:03.229Z,95816.00
2018-10-17T17:33:32.632Z,95817.00
2018-10-17T17:39:02.116Z,95822.00
2018-10-17T17:44:37.617Z,95828.00
2018-10-17T17:50:09.673Z,95821.00
2018-10-17T17:55:39.393Z,95818.00
2018-10-17T18:01:09.765Z,95824.00
2018-10-17T18:06:39.292Z,95829.00
2018-10-17T18:12:08.625Z,95826.00
2018-10-17T18:17:38.938Z,95831.00
2018-10-17T18:23:09.095Z,95827.00
2018-10-17T18:28:38.503Z,95820.00
2018-10-17T18:34:07.841Z,95834.00
2018-10-17T18:39:38.244Z,95834.00
2018-10-17T18:45:07.813Z,95833.00
2018-10-17T18:50:38.328Z,95843.00
2018-10-17T18:56:08.976Z,95839.00
2018-10-17T19:01:40.140Z,95849.00
2018-10-17T19:07:10.489Z,95849.00
2018-10-17T19:12:39.897Z,95852.00
2018-10-17T19:18:09.206Z,95853.00
2018-10-17T19:23:45.650Z,95858.00
2018-10-17T19:29:15.020Z,95857.00
2018-10-17T19:34:44.425Z,95860.00
2018-10-17T19:40:17.516Z,95861.00
2018-10-17T19:45:47.451Z,95869.00
2018-10-17T19:51:21.357Z,95872.00
2018-10-17T19:56:55.567Z,95870.00
2018-10-17T20:02:25.049Z,95869.00
2018-10-17T20:07:54.526Z,95874.00
2018-10-17T20:13:23.924Z,95874.00
2018-10-17T20:18:53.288Z,95864.00
2018-10-17T20:24:23.636Z,95865.00
2018-10-17T20:29:52.950Z,95862.00
2018-10-17T20:35:22.229Z,95869.00
2018-10-17T20:40:51.697Z,95868.00
2018-10-17T20:46:21.037Z,95868.00
2018-10-17T20:51:50.316Z,95875.00
2018-10-17T20:57:23.780Z,95865.00
2018-10-17T21:02:54.377Z,95870.00
2018-10-17T21:08:23.743Z,95860.00
2018-10-17T21:13:53.173Z,95860.00
2018-10-17T21:19:22.576Z,95861.00
2018-10-17T21:24:51.965Z,95860.00
2018-10-17T21:30:21.349Z,95871.00
2018-10-17T21:35:50.720Z,95859.00
2018-10-17T21:41:20.955Z,95852.00
2018-10-17T21:46:50.271Z,95846.00
2018-10-17T21:52:19.660Z,95849.00
2018-10-17T21:57:49.000Z,95846.00
2018-10-17T22:03:18.288Z,95855.00
2018-10-17T22:08:47.715Z,95851.00
2018-10-17T22:14:16.939Z,95844.00
2018-10-17T22:19:46.181Z,95847.00
2018-10-17T22:25:15.492Z,95856.00
2018-10-17T22:30:44.824Z,95855.00
2018-10-17T22:36:14.092Z,95864.00
2018-10-17T22:41:44.579Z,95856.00
2018-10-17T22:47:13.897Z,95873.00
2018-10-17T22:52:43.118Z,95862.00
2018-10-17T22:58:12.521Z,95857.00
2018-10-17T23:03:41.936Z,95867.00
2018-10-17T23:09:14.021Z,95865.00
2018-10-17T23:14:43.196Z,95856.00
2018-10-17T23:20:12.546Z,95866.00
2018-10-17T23:25:42.763Z,95870.00
2018-10-17T23:31:11.992Z,95865.00
2018-10-17T23:36:41.346Z,95857.00
2018-10-17T23:42:10.642Z,95857.00
2018-10-17T23:47:39.900Z,95851.00
2018-10-17T23:53:09.621Z,95854.00
2018-10-17T23:58:38.939Z,95859.00
